• Join FlightAware (Why Join?)
  • Login
  • US Flag 
09:04AM EDT


 

Airport Tracker/Info


-or-


 

Live Flight TrackerFlight Track Log ✈ VH-VBH ✈ 08-May-2013 ✈ YBAF - YBCG / OOL

Flight Track Log - Related Links

Times and Time Zones

All times are in EDT time to prevent confusion due to time zone crossing. See the VH-VBH flight status page for this flight to view local times or setup timezone preferences in your user account.

Time Position Orientation Groundspeed Altitude Reporting Facility
EDT Latitude Longitude Course Direction KTS MPH feet Rate Location/Type
12:10AM -27.6930 153.2317 107° East 93 107 1,400  Level Aus ATC (RADAR)
12:11AM -27.6982 153.2515 107° East 95 109 1,500 60 Climbing Aus ATC (RADAR)
12:12AM -27.7057 153.2750 110° East 93 107 1,500 -120 Level Aus ATC (RADAR)
12:13AM -27.7112 153.2947 108° East 99 114 1,400 -120 Descending Aus ATC (RADAR)
12:13AM -27.7279 153.3119 138° Southeast 96 110 1,400 60 Level Aus ATC (RADAR)
12:15AM -27.7438 153.3502 115° Southeast 96 110 1,600  Climbing Aus ATC (RADAR)
12:15AM -27.7470 153.3635 105° East 102 117 1,500 -240 Descending Aus ATC (RADAR)
12:16AM -27.7540 153.3841 111° Southeast 103 119 1,400 -300 Descending Aus ATC (RADAR)
12:17AM -27.7585 153.4084 102° East 103 119 1,100 -300 Descending Aus ATC (RADAR)
12:17AM -27.7596 153.4279 94° East 104 120 1,000 -120 Descending Aus ATC (RADAR)
12:18AM -27.7722 153.4460 128° Southeast 103 119 1,000 -120 Level Aus ATC (RADAR)
12:18AM -27.7847 153.4439 189° South 107 123 900  Descending Aus ATC (RADAR)
12:20AM -27.8175 153.4379 189° South 103 119 1,000  Climbing Aus ATC (RADAR)
12:20AM -27.8293 153.4362 188° South 103 119 900 -120 Descending Aus ATC (RADAR)
12:21AM -27.8477 153.4348 184° South 100 115 900  Level Aus ATC (RADAR)
12:21AM -27.8644 153.4332 185° South 103 119 900  Level Aus ATC (RADAR)
12:22AM -27.8805 153.4321 183° South 100 115 900 60 Level Aus ATC (RADAR)
12:23AM -27.9013 153.4326 179° South 99 114 1,000  Climbing Aus ATC (RADAR)
12:23AM -27.9127 153.4330 178° South 99 114 900 -120 Descending Aus ATC (RADAR)
12:24AM -27.9289 153.4343 176° South 99 114 900  Level Aus ATC (RADAR)
12:25AM -27.9657 153.4341 180° South 99 114 900  Level Aus ATC (RADAR)
12:25AM -27.9779 153.4336 182° South 103 119 900  Level Aus ATC (RADAR)
12:26AM -27.9986 153.4352 176° South 99 114 900 60 Level Aus ATC (RADAR)
12:27AM -28.0171 153.4378 173° South 101 116 1,000  Climbing Aus ATC (RADAR)
12:27AM -28.0331 153.4430 164° South 101 116 900  Descending Aus ATC (RADAR)
12:28AM -28.0551 153.4500 164° South 99 114 1,000 60 Climbing Aus ATC (RADAR)
12:29AM -28.0662 153.4532 166° South 99 114 1,000 -60 Level Aus ATC (RADAR)
12:30AM -28.1003 153.4705 156° South 100 115 900 -180 Descending Aus ATC (RADAR)
12:30AM -28.1114 153.4766 154° Southeast 103 119 700 -120 Descending Aus ATC (RADAR)
12:31AM -28.1241 153.4850 150° Southeast 91 105 800 -120 Climbing Aus ATC (RADAR)
12:32AM -28.1417 153.4954 152° Southeast 80 92 600 -240 Descending Aus ATC (RADAR)
12:32AM -28.1518 153.5013 153° Southeast 67 77 500 -420 Descending Aus ATC (RADAR)
12:33AM -28.1607 153.5093 142° Southeast 52 60 100 -540 Descending Aus ATC (RADAR)